West Fulton, New York
Current Conditions -  °F | °C
As of 4:35 AM on Sunday 26 Oct 2014 (Local Time) from KNY0 Reporting Station
Overcast Overcast  
Wind Chill: 41°   Ceiling: 5500
Heat Index: 45°   Visibility: 10mi
Dew Point: 40°   Wind: 9mph
Humidity: 83%   Direction: 280°W
Pressure: 29.51"   Gusts: NA
Location:  42.56°N, 74.46°W
Report Text: KNY0 260835Z AUTO 28008KT 10SM OVC055 07/05 A2951 RMK AO2 T00740046
Loading
Personal Weather Stations






























Interactive Weather Map
Tropical Storm Tracking
New forecast layout! Learn more

10-Day Weather Forecast

Advertisements
Track Severe Weather on mobile